KFNL

Fort Collins-Loveland Municipal Airport

Fort Collins/Loveland, Colorado, USA
METAR KFNL 232156Z AUTO 05004KT 4SM HZ OVC015 M03/M07 A2997 RMK AO2 SLP193 T10281067 FZRANO
Observed Flight Rules
Feb-23 @ 21:56 UTC (41 minutes ago) Marginal Visual Flight Rules
Wind Visibility Clouds Conditions
50° at 4 knots 4 miles
  • Overcast at 1,500' AGL
  • Haze
Temperatures Readings
Current -3°C / 27°F
Dewpoint -7°C / 19°F
Humidity 74%
Altimeter 29.97" Hg
Pressure 1019.3 hPa
Elevation 1529
METAR KFNL 232156Z AUTO 05004KT 4SM HZ OVC015 M03/M07 A2997 RMK AO2 SLP193 T10281067 FZRANO
Observed Flight Rules
Feb-23 @ 21:56 UTC
(41 minutes ago)
MVFR
Wind Visibility
50° at 4 knots 4 miles
Clouds
  • Overcast at 1,500' AGL
Conditions
  • Haze
Temperature Dewpoint
-3°C / 27°F -7°C / 19°F
Humidity Altimeter Pressure
74% 29.97" Hg 1019.3 hPa